TimeCEST,TemperatureF,Dew PointF,Humidity,Sea Level PressureIn,VisibilityMPH,Wind Direction,Wind SpeedMPH,Gust SpeedMPH,PrecipitationIn,Events,Conditions,WindDirDegrees,DateUTC
12:55 AM,64.4,60.8,88,30.09,6.2,WSW,4.6,-,N/A,,Partly Cloudy,240,2012-10-02 22:55:00
1:55 AM,64.4,60.8,88,30.09,6.2,West,6.9,-,N/A,,Partly Cloudy,260,2012-10-02 23:55:00
2:00 AM,65,60,80,30.12,10,West,6.9,,,,Scattered Clouds,260,2012-10-03 00:00:00
2:55 AM,60.8,59.0,94,30.09,6.2,WSW,4.6,-,N/A,,Partly Cloudy,240,2012-10-03 00:55:00
3:55 AM,62.6,59.0,88,30.09,6.2,WSW,4.6,-,N/A,,Partly Cloudy,250,2012-10-03 01:55:00
4:55 AM,62.6,57.2,82,30.09,6.2,WNW,4.6,-,N/A,,Partly Cloudy,290,2012-10-03 02:55:00
5:00 AM,63,58,79,30.10,10,WNW,4.6,,,,Scattered Clouds,290,2012-10-03 03:00:00
5:55 AM,62.6,57.2,82,30.09,6.2,WNW,2.3,-,N/A,,Partly Cloudy,290,2012-10-03 03:55:00
6:55 AM,59.0,59.0,100,30.09,6.2,West,4.6,-,N/A,,Partly Cloudy,280,2012-10-03 04:55:00
7:55 AM,64.4,60.8,88,30.09,-9999.0,West,2.3,-,N/A,,Clear,260,2012-10-03 05:55:00
8:00 AM,65,61,82,30.11,12,West,2.3,,,,,260,2012-10-03 06:00:00
8:55 AM,69.8,62.6,78,30.09,-9999.0,West,5.8,-,N/A,,Clear,260,2012-10-03 06:55:00
9:55 AM,73.4,57.2,57,30.09,-9999.0,WNW,4.6,-,N/A,,Clear,290,2012-10-03 07:55:00
10:55 AM,78.8,59.0,51,30.09,6.2,West,3.5,-,N/A,,Partly Cloudy,270,2012-10-03 08:55:00
11:00 AM,79,59,39,30.12,10,West,3.5,,,,Scattered Clouds,270,2012-10-03 09:00:00
11:55 AM,82.4,59.0,45,30.09,6.2,SSW,5.8,-,N/A,,Partly Cloudy,200,2012-10-03 09:55:00
12:55 PM,84.2,51.8,33,30.09,6.2,South,5.8,-,N/A,,Partly Cloudy,180,2012-10-03 10:55:00
1:55 PM,84.2,50.0,30,30.06,6.2,SSE,5.8,-,N/A,,Partly Cloudy,150,2012-10-03 11:55:00
2:00 PM,84,49,20,30.08,10,SSE,5.8,,,,Scattered Clouds,150,2012-10-03 12:00:00
2:55 PM,82.4,53.6,37,30.06,6.2,ENE,13.8,-,N/A,,Partly Cloudy,70,2012-10-03 12:55:00
3:55 PM,80.6,57.2,45,30.06,6.2,East,15.0,-,N/A,,Partly Cloudy,80,2012-10-03 13:55:00
4:55 PM,78.8,59.0,51,30.06,6.2,East,13.8,-,N/A,,Partly Cloudy,80,2012-10-03 14:55:00
5:00 PM,78,59,42,30.06,7,East,13.8,,,,Scattered Clouds,80,2012-10-03 15:00:00
5:55 PM,77.0,64.4,65,30.06,6.2,ENE,13.8,-,N/A,,Partly Cloudy,70,2012-10-03 15:55:00
6:55 PM,73.4,64.4,73,30.06,6.2,East,9.2,-,N/A,,Partly Cloudy,100,2012-10-03 16:55:00
7:55 PM,71.6,64.4,78,30.06,6.2,East,9.2,-,N/A,,Partly Cloudy,90,2012-10-03 17:55:00
8:00 PM,72,65,73,30.07,7,East,9.2,,,,Scattered Clouds,90,2012-10-03 18:00:00
8:55 PM,68.0,64.4,88,30.09,6.2,ESE,5.8,-,N/A,,Partly Cloudy,110,2012-10-03 18:55:00
9:55 PM,66.2,64.4,94,30.09,6.2,SSE,4.6,-,N/A,,Scattered Clouds,160,2012-10-03 19:55:00
10:55 PM,66.2,64.4,94,30.09,6.2,Calm,Calm,-,N/A,,Partly Cloudy,0,2012-10-03 20:55:00
11:00 PM,65,65,100,30.11,7,Calm,Calm,,,,Scattered Clouds,,2012-10-03 21:00:00
11:55 PM,66.2,64.4,94,30.09,6.2,NW,2.3,-,N/A,,Partly Cloudy,320,2012-10-03 21:55:00